KBCT/BCT METAR and TAF weather

Enter ICAO airport designator
Station Type Date Time Source
KBCT METAR 2023/02/08 03:53 UTC NOAA

KBCT 080353Z 11010G15KT 10SM SCT039 22/15 A3025


Station Type Date Time Source
KBCT Decoded METAR 2023/02/08 03:53 UTC NOAA

Boca Raton, Boca Raton Airport, FL, United States (KBCT) 26-22-43N 080-06-28W
Feb 07, 2023 - 10:53 PM EST / 2023.02.08 0353 UTC
Wind: from the ESE (110 degrees) at 12 MPH (10 KT) gusting to 17 MPH (15 KT):0
Visibility: 10 mile(s):0
Sky conditions: partly cloudy
Temperature: 71 F (22 C)
Dew Point: 59 F (15 C)
Relative Humidity: 64%
Pressure (altimeter): 30.25 in. Hg (1024 hPa)
ob: KBCT 080353Z 11010G15KT 10SM SCT039 22/15 A3025
cycle: 4

Station Type Date Time Source
KBCT TAF 2020/02/03 18:20 UTC NOAA

TAF KBCT 031720Z 0318/0418 12005KT P6SM SKC
FM040000 VRB03KT P6SM SKC
FM041400 16011KT P6SM FEW030

Example: see airport list